ヌクアロファ の空港の天気 - METARとTAF

ファアモツ国際空港 ( NFTF / TBU ) - トンガ ヌクアロファ
飛行場実況気象(Metar)
観測時間05/27 09:00 TOT (05/26 20:00 UTC)
風向・風速東 2m/s
視程10km以上
天気現象
少しの雲 雲底高度 520m
全天の8割程度の雲 雲底高度 1220m
気温24℃
湿度83%
気圧1019hPa
METARNFTF 262000Z 10004KT 9999 FEW017TCU BKN040 24/21 Q1019
過去の天気等 Google飛行場航空写真 Wunderground天気予報

過去48時間のMETAR

飛行場予報(TAF)
発表時間: 5/27 06:01 TOT (5/26 17:01 UTC)
予報対象時間: 27日7時 TOT ~ 28日7時 TOT
風向・風速東南東 5m/s
視程10km以上
少しの雲 雲底高度 520m
全天の8割程度の雲 雲底高度 1220m
TAF NFTF 261701Z 2618/2718 11010KT 9999 FEW017 BKN040